sensor_id;sensor_type;location;lat;lon;timestamp;P1;durP1;ratioP1;P2;durP2;ratioP2
38653;SDS011;24413;52.450;20.706;2023-12-20T00:01:34;48.58;;;32.03;;
38653;SDS011;24413;52.450;20.706;2023-12-20T00:04:00;41.42;;;30.38;;
38653;SDS011;24413;52.450;20.706;2023-12-20T00:06:26;43.20;;;31.98;;
38653;SDS011;24413;52.450;20.706;2023-12-20T00:08:52;43.75;;;31.55;;
38653;SDS011;24413;52.450;20.706;2023-12-20T00:11:18;46.33;;;31.38;;
38653;SDS011;24413;52.450;20.706;2023-12-20T00:13:44;44.67;;;32.70;;
38653;SDS011;24413;52.450;20.706;2023-12-20T00:16:09;44.63;;;32.67;;
38653;SDS011;24413;52.450;20.706;2023-12-20T00:18:34;41.80;;;31.08;;
38653;SDS011;24413;52.450;20.706;2023-12-20T00:21:00;45.13;;;30.80;;
38653;SDS011;24413;52.450;20.706;2023-12-20T00:23:25;40.92;;;31.50;;
38653;SDS011;24413;52.450;20.706;2023-12-20T00:25:51;37.33;;;29.52;;
38653;SDS011;24413;52.450;20.706;2023-12-20T00:28:16;45.92;;;33.42;;
38653;SDS011;24413;52.450;20.706;2023-12-20T00:30:42;38.33;;;29.38;;
38653;SDS011;24413;52.450;20.706;2023-12-20T00:33:07;37.20;;;30.80;;
38653;SDS011;24413;52.450;20.706;2023-12-20T00:35:32;42.90;;;32.15;;
38653;SDS011;24413;52.450;20.706;2023-12-20T00:37:58;47.65;;;33.10;;
38653;SDS011;24413;52.450;20.706;2023-12-20T00:40:24;57.78;;;36.38;;
38653;SDS011;24413;52.450;20.706;2023-12-20T00:42:49;56.28;;;35.67;;
38653;SDS011;24413;52.450;20.706;2023-12-20T00:45:15;38.13;;;28.25;;
38653;SDS011;24413;52.450;20.706;2023-12-20T00:47:40;42.20;;;29.13;;
38653;SDS011;24413;52.450;20.706;2023-12-20T00:50:06;44.35;;;30.48;;
38653;SDS011;24413;52.450;20.706;2023-12-20T00:52:32;40.08;;;27.80;;
38653;SDS011;24413;52.450;20.706;2023-12-20T00:54:57;37.78;;;27.75;;
38653;SDS011;24413;52.450;20.706;2023-12-20T00:57:22;35.53;;;26.85;;
38653;SDS011;24413;52.450;20.706;2023-12-20T00:59:48;39.28;;;29.38;;
38653;SDS011;24413;52.450;20.706;2023-12-20T01:02:14;34.38;;;26.33;;
38653;SDS011;24413;52.450;20.706;2023-12-20T01:04:39;35.55;;;27.02;;
38653;SDS011;24413;52.450;20.706;2023-12-20T01:07:04;36.72;;;26.83;;
38653;SDS011;24413;52.450;20.706;2023-12-20T01:09:30;34.17;;;26.88;;
38653;SDS011;24413;52.450;20.706;2023-12-20T01:11:55;37.78;;;27.40;;
38653;SDS011;24413;52.450;20.706;2023-12-20T01:14:21;37.63;;;28.95;;
38653;SDS011;24413;52.450;20.706;2023-12-20T01:16:46;43.08;;;30.20;;
38653;SDS011;24413;52.450;20.706;2023-12-20T01:19:12;42.20;;;32.25;;
38653;SDS011;24413;52.450;20.706;2023-12-20T01:21:38;41.05;;;30.98;;
38653;SDS011;24413;52.450;20.706;2023-12-20T01:24:04;39.10;;;28.70;;
38653;SDS011;24413;52.450;20.706;2023-12-20T01:26:29;40.47;;;29.30;;
38653;SDS011;24413;52.450;20.706;2023-12-20T01:28:55;40.67;;;28.45;;
38653;SDS011;24413;52.450;20.706;2023-12-20T01:31:20;35.92;;;26.27;;
38653;SDS011;24413;52.450;20.706;2023-12-20T01:34:15;37.42;;;27.95;;
38653;SDS011;24413;52.450;20.706;2023-12-20T01:36:40;42.35;;;29.20;;
38653;SDS011;24413;52.450;20.706;2023-12-20T01:39:06;35.90;;;27.40;;
38653;SDS011;24413;52.450;20.706;2023-12-20T01:41:31;36.38;;;28.30;;
38653;SDS011;24413;52.450;20.706;2023-12-20T01:43:57;38.13;;;27.35;;
38653;SDS011;24413;52.450;20.706;2023-12-20T01:46:22;37.67;;;27.08;;
38653;SDS011;24413;52.450;20.706;2023-12-20T01:48:48;41.38;;;28.02;;
38653;SDS011;24413;52.450;20.706;2023-12-20T01:51:14;32.60;;;25.38;;
38653;SDS011;24413;52.450;20.706;2023-12-20T01:53:39;36.05;;;26.10;;
38653;SDS011;24413;52.450;20.706;2023-12-20T01:56:05;34.33;;;26.52;;
38653;SDS011;24413;52.450;20.706;2023-12-20T01:58:31;33.33;;;25.17;;
38653;SDS011;24413;52.450;20.706;2023-12-20T02:00:56;31.65;;;24.10;;
38653;SDS011;24413;52.450;20.706;2023-12-20T02:03:23;39.15;;;27.40;;
38653;SDS011;24413;52.450;20.706;2023-12-20T02:05:48;32.10;;;24.52;;
38653;SDS011;24413;52.450;20.706;2023-12-20T02:08:14;32.13;;;25.40;;
38653;SDS011;24413;52.450;20.706;2023-12-20T02:10:40;32.22;;;24.13;;
38653;SDS011;24413;52.450;20.706;2023-12-20T02:13:06;32.38;;;23.73;;
38653;SDS011;24413;52.450;20.706;2023-12-20T02:15:31;33.20;;;24.10;;
38653;SDS011;24413;52.450;20.706;2023-12-20T02:17:56;29.02;;;22.90;;
38653;SDS011;24413;52.450;20.706;2023-12-20T02:20:22;29.70;;;22.65;;
38653;SDS011;24413;52.450;20.706;2023-12-20T02:22:47;28.48;;;23.13;;
38653;SDS011;24413;52.450;20.706;2023-12-20T02:25:13;28.95;;;23.25;;
38653;SDS011;24413;52.450;20.706;2023-12-20T02:27:38;26.02;;;21.30;;
38653;SDS011;24413;52.450;20.706;2023-12-20T02:30:05;27.67;;;23.38;;
38653;SDS011;24413;52.450;20.706;2023-12-20T02:32:31;27.88;;;21.70;;
38653;SDS011;24413;52.450;20.706;2023-12-20T02:34:57;29.20;;;21.20;;
38653;SDS011;24413;52.450;20.706;2023-12-20T02:37:22;30.75;;;23.27;;
38653;SDS011;24413;52.450;20.706;2023-12-20T02:39:48;23.75;;;20.13;;
38653;SDS011;24413;52.450;20.706;2023-12-20T02:42:13;24.02;;;18.27;;
38653;SDS011;24413;52.450;20.706;2023-12-20T02:44:39;25.52;;;18.92;;
38653;SDS011;24413;52.450;20.706;2023-12-20T02:47:04;20.90;;;17.52;;
38653;SDS011;24413;52.450;20.706;2023-12-20T02:49:29;20.77;;;17.80;;
38653;SDS011;24413;52.450;20.706;2023-12-20T02:51:55;19.52;;;15.80;;
38653;SDS011;24413;52.450;20.706;2023-12-20T02:54:20;17.85;;;14.25;;
38653;SDS011;24413;52.450;20.706;2023-12-20T02:56:46;16.20;;;13.98;;
38653;SDS011;24413;52.450;20.706;2023-12-20T02:59:11;17.80;;;14.00;;
38653;SDS011;24413;52.450;20.706;2023-12-20T03:01:43;20.48;;;15.07;;
38653;SDS011;24413;52.450;20.706;2023-12-20T03:04:10;23.55;;;14.45;;
38653;SDS011;24413;52.450;20.706;2023-12-20T03:06:35;20.45;;;16.60;;
38653;SDS011;24413;52.450;20.706;2023-12-20T03:09:01;21.20;;;16.13;;
38653;SDS011;24413;52.450;20.706;2023-12-20T03:11:26;22.38;;;15.43;;
38653;SDS011;24413;52.450;20.706;2023-12-20T03:13:52;20.85;;;16.13;;
38653;SDS011;24413;52.450;20.706;2023-12-20T03:16:18;20.00;;;16.20;;
38653;SDS011;24413;52.450;20.706;2023-12-20T03:18:43;22.13;;;16.80;;
38653;SDS011;24413;52.450;20.706;2023-12-20T03:21:09;19.15;;;15.32;;
38653;SDS011;24413;52.450;20.706;2023-12-20T03:23:34;18.20;;;14.77;;
38653;SDS011;24413;52.450;20.706;2023-12-20T03:26:00;18.63;;;15.35;;
38653;SDS011;24413;52.450;20.706;2023-12-20T03:28:26;19.17;;;15.88;;
38653;SDS011;24413;52.450;20.706;2023-12-20T03:30:51;21.42;;;16.08;;
38653;SDS011;24413;52.450;20.706;2023-12-20T03:33:17;19.73;;;14.07;;
38653;SDS011;24413;52.450;20.706;2023-12-20T03:35:42;21.30;;;16.23;;
38653;SDS011;24413;52.450;20.706;2023-12-20T03:38:08;17.75;;;15.73;;
38653;SDS011;24413;52.450;20.706;2023-12-20T03:40:34;19.88;;;15.68;;
38653;SDS011;24413;52.450;20.706;2023-12-20T03:42:59;22.20;;;16.42;;
38653;SDS011;24413;52.450;20.706;2023-12-20T03:45:24;21.27;;;16.65;;
38653;SDS011;24413;52.450;20.706;2023-12-20T03:47:50;21.65;;;15.43;;
38653;SDS011;24413;52.450;20.706;2023-12-20T03:50:20;19.45;;;14.23;;
38653;SDS011;24413;52.450;20.706;2023-12-20T03:52:47;18.48;;;15.23;;
38653;SDS011;24413;52.450;20.706;2023-12-20T03:55:12;18.00;;;14.48;;
38653;SDS011;24413;52.450;20.706;2023-12-20T03:57:37;20.70;;;16.27;;
38653;SDS011;24413;52.450;20.706;2023-12-20T04:00:03;20.70;;;16.20;;
38653;SDS011;24413;52.450;20.706;2023-12-20T04:02:29;23.65;;;16.42;;
38653;SDS011;24413;52.450;20.706;2023-12-20T04:04:54;30.67;;;21.35;;
38653;SDS011;24413;52.450;20.706;2023-12-20T04:07:20;30.02;;;22.17;;
38653;SDS011;24413;52.450;20.706;2023-12-20T04:09:45;30.70;;;24.05;;
38653;SDS011;24413;52.450;20.706;2023-12-20T04:12:12;31.83;;;23.73;;
38653;SDS011;24413;52.450;20.706;2023-12-20T04:14:37;29.63;;;22.42;;
38653;SDS011;24413;52.450;20.706;2023-12-20T04:17:02;27.85;;;21.52;;
38653;SDS011;24413;52.450;20.706;2023-12-20T04:19:28;27.48;;;20.95;;
38653;SDS011;24413;52.450;20.706;2023-12-20T04:21:53;26.10;;;21.58;;
38653;SDS011;24413;52.450;20.706;2023-12-20T04:24:19;28.67;;;22.08;;
38653;SDS011;24413;52.450;20.706;2023-12-20T04:26:44;24.80;;;19.58;;
38653;SDS011;24413;52.450;20.706;2023-12-20T04:29:10;27.17;;;21.10;;
38653;SDS011;24413;52.450;20.706;2023-12-20T04:31:35;26.10;;;19.63;;
38653;SDS011;24413;52.450;20.706;2023-12-20T04:34:00;26.55;;;20.42;;
38653;SDS011;24413;52.450;20.706;2023-12-20T04:36:26;27.65;;;20.48;;
38653;SDS011;24413;52.450;20.706;2023-12-20T04:38:52;29.08;;;20.52;;
38653;SDS011;24413;52.450;20.706;2023-12-20T04:41:18;24.17;;;20.35;;
38653;SDS011;24413;52.450;20.706;2023-12-20T04:43:44;26.77;;;20.48;;
38653;SDS011;24413;52.450;20.706;2023-12-20T04:46:09;25.35;;;18.80;;
38653;SDS011;24413;52.450;20.706;2023-12-20T04:48:35;22.65;;;19.40;;
38653;SDS011;24413;52.450;20.706;2023-12-20T04:51:00;23.17;;;17.23;;
38653;SDS011;24413;52.450;20.706;2023-12-20T04:53:26;23.52;;;18.77;;
38653;SDS011;24413;52.450;20.706;2023-12-20T04:55:52;23.48;;;17.92;;
38653;SDS011;24413;52.450;20.706;2023-12-20T04:58:18;25.65;;;19.15;;
38653;SDS011;24413;52.450;20.706;2023-12-20T05:00:44;24.02;;;19.88;;
38653;SDS011;24413;52.450;20.706;2023-12-20T05:03:09;23.38;;;19.38;;
38653;SDS011;24413;52.450;20.706;2023-12-20T05:05:34;24.95;;;19.52;;
38653;SDS011;24413;52.450;20.706;2023-12-20T05:08:00;28.65;;;20.13;;
38653;SDS011;24413;52.450;20.706;2023-12-20T05:10:25;23.48;;;18.00;;
38653;SDS011;24413;52.450;20.706;2023-12-20T05:12:52;23.92;;;19.85;;
38653;SDS011;24413;52.450;20.706;2023-12-20T05:15:17;23.00;;;18.58;;
38653;SDS011;24413;52.450;20.706;2023-12-20T05:17:42;25.13;;;18.48;;
38653;SDS011;24413;52.450;20.706;2023-12-20T05:20:08;25.67;;;18.60;;
38653;SDS011;24413;52.450;20.706;2023-12-20T05:22:33;27.08;;;19.08;;
38653;SDS011;24413;52.450;20.706;2023-12-20T05:24:59;22.67;;;19.15;;
38653;SDS011;24413;52.450;20.706;2023-12-20T05:27:24;25.70;;;18.92;;
38653;SDS011;24413;52.450;20.706;2023-12-20T05:29:50;23.88;;;19.27;;
38653;SDS011;24413;52.450;20.706;2023-12-20T05:32:15;20.83;;;17.05;;
38653;SDS011;24413;52.450;20.706;2023-12-20T05:34:41;33.17;;;24.05;;
38653;SDS011;24413;52.450;20.706;2023-12-20T05:37:06;48.95;;;34.33;;
38653;SDS011;24413;52.450;20.706;2023-12-20T05:39:31;60.75;;;42.35;;
38653;SDS011;24413;52.450;20.706;2023-12-20T05:41:57;51.00;;;41.85;;
38653;SDS011;24413;52.450;20.706;2023-12-20T05:44:22;38.15;;;26.73;;
38653;SDS011;24413;52.450;20.706;2023-12-20T05:46:48;30.75;;;21.88;;
38653;SDS011;24413;52.450;20.706;2023-12-20T05:49:13;34.55;;;24.73;;
38653;SDS011;24413;52.450;20.706;2023-12-20T05:51:39;130.90;;;77.07;;
38653;SDS011;24413;52.450;20.706;2023-12-20T05:54:04;34.90;;;23.67;;
38653;SDS011;24413;52.450;20.706;2023-12-20T05:56:30;37.25;;;20.63;;
38653;SDS011;24413;52.450;20.706;2023-12-20T05:58:55;35.85;;;23.45;;
38653;SDS011;24413;52.450;20.706;2023-12-20T06:01:20;41.17;;;29.30;;
38653;SDS011;24413;52.450;20.706;2023-12-20T06:03:46;32.25;;;25.05;;
38653;SDS011;24413;52.450;20.706;2023-12-20T06:06:11;44.67;;;29.15;;
38653;SDS011;24413;52.450;20.706;2023-12-20T06:08:38;31.77;;;22.55;;
38653;SDS011;24413;52.450;20.706;2023-12-20T06:11:03;36.13;;;21.65;;
38653;SDS011;24413;52.450;20.706;2023-12-20T06:13:29;31.92;;;22.17;;
38653;SDS011;24413;52.450;20.706;2023-12-20T06:15:55;33.50;;;22.58;;
38653;SDS011;24413;52.450;20.706;2023-12-20T06:18:20;33.17;;;22.63;;
38653;SDS011;24413;52.450;20.706;2023-12-20T06:20:46;33.22;;;20.58;;
38653;SDS011;24413;52.450;20.706;2023-12-20T06:23:11;34.50;;;22.20;;
38653;SDS011;24413;52.450;20.706;2023-12-20T06:25:37;31.80;;;22.52;;
38653;SDS011;24413;52.450;20.706;2023-12-20T06:28:02;31.58;;;22.95;;
38653;SDS011;24413;52.450;20.706;2023-12-20T06:30:28;39.83;;;26.80;;
38653;SDS011;24413;52.450;20.706;2023-12-20T06:32:54;32.05;;;23.33;;
38653;SDS011;24413;52.450;20.706;2023-12-20T06:35:20;31.25;;;23.10;;
38653;SDS011;24413;52.450;20.706;2023-12-20T06:37:45;27.13;;;20.83;;
38653;SDS011;24413;52.450;20.706;2023-12-20T06:40:11;31.27;;;20.25;;
38653;SDS011;24413;52.450;20.706;2023-12-20T06:42:36;36.10;;;24.17;;
38653;SDS011;24413;52.450;20.706;2023-12-20T06:45:02;28.30;;;20.17;;
38653;SDS011;24413;52.450;20.706;2023-12-20T06:47:28;35.72;;;24.45;;
38653;SDS011;24413;52.450;20.706;2023-12-20T06:49:53;30.00;;;21.23;;
38653;SDS011;24413;52.450;20.706;2023-12-20T06:52:19;27.75;;;21.33;;
38653;SDS011;24413;52.450;20.706;2023-12-20T06:54:44;34.17;;;23.95;;
38653;SDS011;24413;52.450;20.706;2023-12-20T06:57:10;33.40;;;24.15;;
38653;SDS011;24413;52.450;20.706;2023-12-20T06:59:39;32.70;;;22.88;;
38653;SDS011;24413;52.450;20.706;2023-12-20T07:02:05;29.25;;;21.40;;
38653;SDS011;24413;52.450;20.706;2023-12-20T07:04:31;26.27;;;19.75;;
38653;SDS011;24413;52.450;20.706;2023-12-20T07:06:56;28.30;;;18.88;;
38653;SDS011;24413;52.450;20.706;2023-12-20T07:09:25;24.73;;;17.70;;
38653;SDS011;24413;52.450;20.706;2023-12-20T07:11:53;30.42;;;21.67;;
38653;SDS011;24413;52.450;20.706;2023-12-20T07:14:19;30.58;;;21.63;;
38653;SDS011;24413;52.450;20.706;2023-12-20T07:16:44;28.52;;;20.92;;
38653;SDS011;24413;52.450;20.706;2023-12-20T07:19:09;33.03;;;22.65;;
38653;SDS011;24413;52.450;20.706;2023-12-20T07:21:35;27.85;;;20.90;;
38653;SDS011;24413;52.450;20.706;2023-12-20T07:24:00;31.55;;;22.35;;
38653;SDS011;24413;52.450;20.706;2023-12-20T07:26:26;28.27;;;21.23;;
38653;SDS011;24413;52.450;20.706;2023-12-20T07:28:51;27.02;;;20.10;;
38653;SDS011;24413;52.450;20.706;2023-12-20T07:31:16;29.42;;;21.95;;
38653;SDS011;24413;52.450;20.706;2023-12-20T07:33:42;27.20;;;18.60;;
38653;SDS011;24413;52.450;20.706;2023-12-20T07:36:07;29.10;;;22.23;;
38653;SDS011;24413;52.450;20.706;2023-12-20T07:38:33;30.02;;;21.77;;
38653;SDS011;24413;52.450;20.706;2023-12-20T07:40:59;37.65;;;27.85;;
38653;SDS011;24413;52.450;20.706;2023-12-20T07:43:24;35.40;;;27.48;;
38653;SDS011;24413;52.450;20.706;2023-12-20T07:45:50;42.75;;;32.80;;
38653;SDS011;24413;52.450;20.706;2023-12-20T07:48:15;42.88;;;31.90;;
38653;SDS011;24413;52.450;20.706;2023-12-20T07:50:41;69.55;;;59.65;;
38653;SDS011;24413;52.450;20.706;2023-12-20T07:53:07;37.17;;;29.27;;
38653;SDS011;24413;52.450;20.706;2023-12-20T07:55:33;29.42;;;22.38;;
38653;SDS011;24413;52.450;20.706;2023-12-20T07:57:59;30.75;;;23.60;;
38653;SDS011;24413;52.450;20.706;2023-12-20T08:00:25;33.17;;;24.17;;
38653;SDS011;24413;52.450;20.706;2023-12-20T08:02:50;37.00;;;26.25;;
38653;SDS011;24413;52.450;20.706;2023-12-20T08:05:16;46.85;;;27.75;;
38653;SDS011;24413;52.450;20.706;2023-12-20T08:07:41;31.08;;;21.52;;
38653;SDS011;24413;52.450;20.706;2023-12-20T08:10:06;23.27;;;18.13;;
38653;SDS011;24413;52.450;20.706;2023-12-20T08:12:32;29.70;;;23.23;;
38653;SDS011;24413;52.450;20.706;2023-12-20T08:14:58;41.28;;;32.15;;
38653;SDS011;24413;52.450;20.706;2023-12-20T08:17:24;80.50;;;54.60;;
38653;SDS011;24413;52.450;20.706;2023-12-20T08:19:49;170.60;;;150.07;;
38653;SDS011;24413;52.450;20.706;2023-12-20T08:22:15;99.15;;;77.85;;
38653;SDS011;24413;52.450;20.706;2023-12-20T08:24:40;127.47;;;99.88;;
38653;SDS011;24413;52.450;20.706;2023-12-20T08:27:05;120.57;;;96.97;;
38653;SDS011;24413;52.450;20.706;2023-12-20T08:29:31;117.57;;;94.70;;
38653;SDS011;24413;52.450;20.706;2023-12-20T08:31:56;182.27;;;155.82;;
38653;SDS011;24413;52.450;20.706;2023-12-20T08:34:22;107.93;;;91.50;;
38653;SDS011;24413;52.450;20.706;2023-12-20T08:36:48;105.05;;;90.43;;
38653;SDS011;24413;52.450;20.706;2023-12-20T08:39:15;35.45;;;29.92;;
38653;SDS011;24413;52.450;20.706;2023-12-20T08:41:41;38.33;;;31.40;;
38653;SDS011;24413;52.450;20.706;2023-12-20T08:44:06;30.83;;;22.92;;
38653;SDS011;24413;52.450;20.706;2023-12-20T08:46:31;28.20;;;21.42;;
38653;SDS011;24413;52.450;20.706;2023-12-20T08:48:57;31.10;;;20.55;;
38653;SDS011;24413;52.450;20.706;2023-12-20T08:51:22;27.65;;;21.60;;
38653;SDS011;24413;52.450;20.706;2023-12-20T08:53:50;30.30;;;22.08;;
38653;SDS011;24413;52.450;20.706;2023-12-20T08:56:16;36.17;;;32.05;;
38653;SDS011;24413;52.450;20.706;2023-12-20T08:58:42;30.80;;;25.30;;
38653;SDS011;24413;52.450;20.706;2023-12-20T09:01:08;20.75;;;17.48;;
38653;SDS011;24413;52.450;20.706;2023-12-20T09:03:34;28.52;;;20.48;;
38653;SDS011;24413;52.450;20.706;2023-12-20T09:05:59;20.75;;;18.40;;
38653;SDS011;24413;52.450;20.706;2023-12-20T09:08:25;23.85;;;19.88;;
38653;SDS011;24413;52.450;20.706;2023-12-20T09:10:50;23.52;;;19.58;;
38653;SDS011;24413;52.450;20.706;2023-12-20T09:13:16;24.33;;;18.60;;
38653;SDS011;24413;52.450;20.706;2023-12-20T09:15:41;25.30;;;17.67;;
38653;SDS011;24413;52.450;20.706;2023-12-20T09:18:07;32.35;;;21.48;;
38653;SDS011;24413;52.450;20.706;2023-12-20T09:20:33;31.50;;;20.15;;
38653;SDS011;24413;52.450;20.706;2023-12-20T09:22:59;32.03;;;24.67;;
38653;SDS011;24413;52.450;20.706;2023-12-20T09:25:24;37.80;;;24.65;;
38653;SDS011;24413;52.450;20.706;2023-12-20T09:27:51;35.80;;;24.90;;
38653;SDS011;24413;52.450;20.706;2023-12-20T09:30:19;34.60;;;24.13;;
38653;SDS011;24413;52.450;20.706;2023-12-20T09:32:45;34.60;;;23.52;;
38653;SDS011;24413;52.450;20.706;2023-12-20T09:35:10;27.55;;;19.20;;
38653;SDS011;24413;52.450;20.706;2023-12-20T09:37:36;41.38;;;29.17;;
38653;SDS011;24413;52.450;20.706;2023-12-20T09:40:01;30.40;;;19.25;;
38653;SDS011;24413;52.450;20.706;2023-12-20T09:45:20;39.58;;;25.67;;
38653;SDS011;24413;52.450;20.706;2023-12-20T09:47:46;29.75;;;22.15;;
38653;SDS011;24413;52.450;20.706;2023-12-20T09:50:12;23.10;;;17.65;;
38653;SDS011;24413;52.450;20.706;2023-12-20T09:52:38;27.88;;;19.65;;
38653;SDS011;24413;52.450;20.706;2023-12-20T09:55:04;21.52;;;16.02;;
38653;SDS011;24413;52.450;20.706;2023-12-20T09:57:33;19.77;;;16.88;;
38653;SDS011;24413;52.450;20.706;2023-12-20T09:59:58;22.58;;;15.82;;
38653;SDS011;24413;52.450;20.706;2023-12-20T10:02:25;24.67;;;18.38;;
38653;SDS011;24413;52.450;20.706;2023-12-20T10:04:54;25.70;;;17.55;;
38653;SDS011;24413;52.450;20.706;2023-12-20T10:07:20;25.67;;;18.90;;
38653;SDS011;24413;52.450;20.706;2023-12-20T10:09:47;24.55;;;16.55;;
38653;SDS011;24413;52.450;20.706;2023-12-20T10:12:13;25.23;;;19.05;;
38653;SDS011;24413;52.450;20.706;2023-12-20T10:14:38;27.10;;;17.08;;
38653;SDS011;24413;52.450;20.706;2023-12-20T10:17:04;24.65;;;17.08;;
38653;SDS011;24413;52.450;20.706;2023-12-20T10:19:31;25.88;;;18.85;;
38653;SDS011;24413;52.450;20.706;2023-12-20T10:21:57;23.00;;;16.75;;
38653;SDS011;24413;52.450;20.706;2023-12-20T10:24:24;23.58;;;17.00;;
38653;SDS011;24413;52.450;20.706;2023-12-20T10:27:00;26.45;;;17.95;;
38653;SDS011;24413;52.450;20.706;2023-12-20T10:29:30;26.33;;;18.50;;
38653;SDS011;24413;52.450;20.706;2023-12-20T10:31:57;41.45;;;26.20;;
38653;SDS011;24413;52.450;20.706;2023-12-20T10:34:23;44.15;;;28.45;;
38653;SDS011;24413;52.450;20.706;2023-12-20T10:36:49;36.28;;;25.75;;
38653;SDS011;24413;52.450;20.706;2023-12-20T10:39:14;32.42;;;21.52;;
38653;SDS011;24413;52.450;20.706;2023-12-20T10:41:40;29.58;;;21.70;;
38653;SDS011;24413;52.450;20.706;2023-12-20T10:44:07;25.00;;;19.92;;
38653;SDS011;24413;52.450;20.706;2023-12-20T10:46:34;28.80;;;19.05;;
38653;SDS011;24413;52.450;20.706;2023-12-20T10:48:59;29.20;;;20.02;;
38653;SDS011;24413;52.450;20.706;2023-12-20T10:51:27;28.48;;;21.00;;
38653;SDS011;24413;52.450;20.706;2023-12-20T10:53:54;31.05;;;22.33;;
38653;SDS011;24413;52.450;20.706;2023-12-20T10:56:20;31.70;;;22.48;;
38653;SDS011;24413;52.450;20.706;2023-12-20T10:58:49;28.08;;;20.77;;
38653;SDS011;24413;52.450;20.706;2023-12-20T11:01:15;26.90;;;20.25;;
38653;SDS011;24413;52.450;20.706;2023-12-20T11:03:48;31.88;;;23.45;;
38653;SDS011;24413;52.450;20.706;2023-12-20T11:08:53;24.30;;;19.08;;
38653;SDS011;24413;52.450;20.706;2023-12-20T11:12:01;26.52;;;19.35;;
38653;SDS011;24413;52.450;20.706;2023-12-20T11:14:49;26.95;;;20.10;;
38653;SDS011;24413;52.450;20.706;2023-12-20T11:17:16;32.72;;;19.60;;
38653;SDS011;24413;52.450;20.706;2023-12-20T11:22:17;35.07;;;21.43;;
38653;SDS011;24413;52.450;20.706;2023-12-20T11:24:44;26.70;;;17.88;;
38653;SDS011;24413;52.450;20.706;2023-12-20T11:27:12;22.40;;;17.45;;
38653;SDS011;24413;52.450;20.706;2023-12-20T11:29:38;24.30;;;15.00;;
38653;SDS011;24413;52.450;20.706;2023-12-20T11:34:50;28.50;;;19.30;;
38653;SDS011;24413;52.450;20.706;2023-12-20T11:37:16;26.75;;;17.33;;
38653;SDS011;24413;52.450;20.706;2023-12-20T11:39:44;27.75;;;18.45;;
38653;SDS011;24413;52.450;20.706;2023-12-20T11:42:10;32.80;;;18.30;;
38653;SDS011;24413;52.450;20.706;2023-12-20T11:44:36;40.97;;;31.10;;
38653;SDS011;24413;52.450;20.706;2023-12-20T11:47:02;28.25;;;18.35;;
38653;SDS011;24413;52.450;20.706;2023-12-20T11:49:28;32.58;;;23.40;;
38653;SDS011;24413;52.450;20.706;2023-12-20T11:51:55;25.52;;;18.88;;
38653;SDS011;24413;52.450;20.706;2023-12-20T11:54:21;18.10;;;11.60;;
38653;SDS011;24413;52.450;20.706;2023-12-20T11:56:47;22.65;;;13.30;;
38653;SDS011;24413;52.450;20.706;2023-12-20T11:59:13;24.17;;;15.10;;
38653;SDS011;24413;52.450;20.706;2023-12-20T12:01:38;39.50;;;26.02;;
38653;SDS011;24413;52.450;20.706;2023-12-20T12:04:04;23.52;;;17.50;;
38653;SDS011;24413;52.450;20.706;2023-12-20T12:06:30;35.40;;;25.48;;
38653;SDS011;24413;52.450;20.706;2023-12-20T12:08:55;39.63;;;24.60;;
38653;SDS011;24413;52.450;20.706;2023-12-20T12:11:21;56.75;;;41.20;;
38653;SDS011;24413;52.450;20.706;2023-12-20T12:13:47;42.72;;;32.28;;
38653;SDS011;24413;52.450;20.706;2023-12-20T12:16:16;28.67;;;23.67;;
38653;SDS011;24413;52.450;20.706;2023-12-20T12:18:44;24.65;;;17.92;;
38653;SDS011;24413;52.450;20.706;2023-12-20T12:21:10;33.95;;;19.08;;
38653;SDS011;24413;52.450;20.706;2023-12-20T12:23:35;34.35;;;25.17;;
38653;SDS011;24413;52.450;20.706;2023-12-20T12:26:03;34.25;;;19.75;;
38653;SDS011;24413;52.450;20.706;2023-12-20T12:28:29;31.38;;;17.98;;
38653;SDS011;24413;52.450;20.706;2023-12-20T12:31:00;25.33;;;16.70;;
38653;SDS011;24413;52.450;20.706;2023-12-20T12:33:25;35.47;;;19.73;;
38653;SDS011;24413;52.450;20.706;2023-12-20T12:35:51;25.90;;;14.52;;
38653;SDS011;24413;52.450;20.706;2023-12-20T12:38:19;24.92;;;16.77;;
38653;SDS011;24413;52.450;20.706;2023-12-20T12:40:46;19.40;;;12.82;;
38653;SDS011;24413;52.450;20.706;2023-12-20T12:43:11;18.30;;;13.48;;
38653;SDS011;24413;52.450;20.706;2023-12-20T12:45:37;15.80;;;11.30;;
38653;SDS011;24413;52.450;20.706;2023-12-20T12:48:03;18.52;;;12.48;;
38653;SDS011;24413;52.450;20.706;2023-12-20T12:50:30;15.32;;;9.73;;
38653;SDS011;24413;52.450;20.706;2023-12-20T12:52:56;16.70;;;10.65;;
38653;SDS011;24413;52.450;20.706;2023-12-20T12:55:22;23.80;;;14.00;;
38653;SDS011;24413;52.450;20.706;2023-12-20T12:57:47;42.95;;;24.27;;
38653;SDS011;24413;52.450;20.706;2023-12-20T13:00:13;29.63;;;14.98;;
38653;SDS011;24413;52.450;20.706;2023-12-20T13:02:39;20.42;;;11.45;;
38653;SDS011;24413;52.450;20.706;2023-12-20T13:05:07;12.15;;;8.07;;
38653;SDS011;24413;52.450;20.706;2023-12-20T13:07:33;9.63;;;7.50;;
38653;SDS011;24413;52.450;20.706;2023-12-20T13:09:59;10.00;;;7.78;;
38653;SDS011;24413;52.450;20.706;2023-12-20T13:12:25;12.15;;;8.25;;
38653;SDS011;24413;52.450;20.706;2023-12-20T13:14:50;9.75;;;6.95;;
38653;SDS011;24413;52.450;20.706;2023-12-20T13:17:16;21.55;;;11.60;;
38653;SDS011;24413;52.450;20.706;2023-12-20T13:19:41;13.95;;;7.15;;
38653;SDS011;24413;52.450;20.706;2023-12-20T13:22:07;10.18;;;5.10;;
38653;SDS011;24413;52.450;20.706;2023-12-20T13:24:32;9.70;;;5.85;;
38653;SDS011;24413;52.450;20.706;2023-12-20T13:26:58;14.82;;;7.57;;
38653;SDS011;24413;52.450;20.706;2023-12-20T13:29:24;12.27;;;6.57;;
38653;SDS011;24413;52.450;20.706;2023-12-20T13:31:52;10.98;;;6.50;;
38653;SDS011;24413;52.450;20.706;2023-12-20T13:34:17;11.95;;;6.97;;
38653;SDS011;24413;52.450;20.706;2023-12-20T13:36:43;15.95;;;8.68;;
38653;SDS011;24413;52.450;20.706;2023-12-20T13:39:11;14.30;;;7.45;;
38653;SDS011;24413;52.450;20.706;2023-12-20T13:41:37;14.40;;;7.72;;
38653;SDS011;24413;52.450;20.706;2023-12-20T13:44:02;11.90;;;8.80;;
38653;SDS011;24413;52.450;20.706;2023-12-20T13:46:28;14.23;;;8.85;;
38653;SDS011;24413;52.450;20.706;2023-12-20T13:48:54;16.55;;;11.68;;
38653;SDS011;24413;52.450;20.706;2023-12-20T13:51:19;11.80;;;9.23;;
38653;SDS011;24413;52.450;20.706;2023-12-20T13:53:46;13.75;;;8.77;;
38653;SDS011;24413;52.450;20.706;2023-12-20T13:56:13;12.88;;;8.98;;
38653;SDS011;24413;52.450;20.706;2023-12-20T13:58:39;22.35;;;14.02;;
38653;SDS011;24413;52.450;20.706;2023-12-20T14:01:05;24.30;;;13.88;;
38653;SDS011;24413;52.450;20.706;2023-12-20T14:03:31;23.77;;;13.95;;
38653;SDS011;24413;52.450;20.706;2023-12-20T14:05:57;19.75;;;13.32;;
38653;SDS011;24413;52.450;20.706;2023-12-20T14:08:22;18.48;;;10.65;;
38653;SDS011;24413;52.450;20.706;2023-12-20T14:10:48;15.02;;;10.95;;
38653;SDS011;24413;52.450;20.706;2023-12-20T14:13:13;22.33;;;15.88;;